Atlantic Beach, FL

8:40 PM EST on February 09, 2016 (GMT -0500)
Reed Island | | Change Station
CLOSE
Current Station
Personal Weather Station
Location: Jacksonville, FL
Elevation: 10 ft
Nearby Weather Stations

Elev 10 ft 30.39 °N, 81.52 °W | Updated 15 seconds ago

Clear
Clear
49.1 °F
Feels Like 49 °F
N
2.0
Wind Variable Wind from West
Gusts 7.0 mph

Today
High -- | Low -- °F
--% Chance of Precip.
Yesterday
High -- | Low -- °F
Precip. -- in
Pressure 29.96 in
Visibility 10.0 miles
Clouds Clear
Windchill 49 °F
Dew Point 30 °F
Humidity 48%
Rainfall 0.00 in
Snow Depth Not available.
7:11 AM 6:09 PM
Waxing Crescent, 3% visible
METAR KCRG 100053Z 25013G20KT 10SM CLR 11/M02 A2995 RMK AO2 SLP143 T01061022
Pressure 29.96 in
Visibility 10.0 miles
Clouds Clear
Windchill 49 °F
Dew Point 30 °F
Humidity 48%
Rainfall 0.00 in
Snow Depth Not available.
7:11 AM 6:09 PM
Waxing Crescent, 3% visible
METAR KCRG 100053Z 25013G20KT 10SM CLR 11/M02 A2995 RMK AO2 SLP143 T01061022

10-Day Weather Forecast

Almanac

Astronomy

Feb. 09, 2016 Rise Set
Actual Time
Civil Twilight
Nautical Twilight
Astronomical Twilight
Moon
Length of Visible Light
Length of Day
Tomorrow will be .
, % of the Moon is Illuminated

Today's Extremes

State Highs State Lows

Community

WunderPhotos

Upload Photos

1,891,760 photos uploaded!

WunderBlog® & News

Nearby

Air Quality

  Air Quality AQ Index Pollutant
Not available.

Snow Depth

Station Depth Elevation

Earthquake Activity

City Distance Mag. Time & Date
Minimum magnitude displayed is 2.5.

Coastal Water Temperatures

Place Temperature

Stations

Nearby Weather Stations

Station Location Temp. Windchill Dew Point Humidity Wind Precip. Elev Updated Type
                   

Watches & Warnings

Freeze Warning, Freeze Watch
Issued: 6:14 PM EST Feb. 9, 2016 – National Weather Service

... Freeze warning remains in effect from 3 am to 9 am EST
Wednesday...
... Freeze watch remains in effect from late Wednesday night
through Thursday morning...
... Wind Advisory has expired...

* temperature... lows early Wednesday and Thursday morning in the
upper 20s inland and lower 30s at the coast with wind chills in
the lower 20s on Wednesday morning.

* Impacts... appropriate action should also be taken to ensure tender
vegetation and outdoor pets have adequate protection from the
cold temperatures.

Precautionary/preparedness actions...

A freeze warning means sub-freezing temperatures are imminent or
expected for at least 2 hours. Appropriate action should be
taken to ensure tender vegetation and outdoor pets have adequate
protection from the cold temperatures. Young children... the
elderly and the homeless are especially vulnerable to the cold.
Take measures to protect them.